createdAt,value
2019-06-26T00:00:50.639Z,22.30
2019-06-26T00:03:21.572Z,22.40
2019-06-26T00:05:51.263Z,22.30
2019-06-26T00:08:20.904Z,22.30
2019-06-26T00:10:50.636Z,22.20
2019-06-26T00:13:26.182Z,22.30
2019-06-26T00:15:51.915Z,22.30
2019-06-26T00:18:21.582Z,22.30
2019-06-26T00:20:51.225Z,22.30
2019-06-26T00:23:20.962Z,22.30
2019-06-26T00:25:50.622Z,22.30
2019-06-26T00:28:20.761Z,22.20
2019-06-26T00:30:50.446Z,22.10
2019-06-26T00:33:20.080Z,22.10
2019-06-26T00:35:49.848Z,22.00
2019-06-26T00:38:19.476Z,22.10
2019-06-26T00:40:49.111Z,22.10
2019-06-26T00:43:19.811Z,22.10
2019-06-26T00:45:49.531Z,22.10
2019-06-26T00:48:19.181Z,22.10
2019-06-26T00:50:48.912Z,22.10
2019-06-26T00:53:18.534Z,22.10
2019-06-26T00:55:48.323Z,22.10
2019-06-26T00:58:18.204Z,22.10
2019-06-26T01:00:51.032Z,22.10
2019-06-26T01:03:20.727Z,22.10
2019-06-26T01:05:50.455Z,22.10
2019-06-26T01:08:20.081Z,22.10
2019-06-26T01:10:49.859Z,22.00
2019-06-26T01:13:19.544Z,22.00
2019-06-26T01:15:49.278Z,21.90
2019-06-26T01:18:19.141Z,21.80
2019-06-26T01:20:48.801Z,21.70
2019-06-26T01:23:18.527Z,21.70
2019-06-26T01:25:48.179Z,21.60
2019-06-26T01:28:17.835Z,21.50
2019-06-26T01:30:47.619Z,21.40
2019-06-26T01:33:17.288Z,21.30
2019-06-26T01:35:46.950Z,21.30
2019-06-26T01:38:16.714Z,21.30
2019-06-26T01:40:46.478Z,21.20
2019-06-26T01:43:16.194Z,21.20
2019-06-26T01:45:45.875Z,21.10
2019-06-26T01:48:15.775Z,21.00
2019-06-26T01:50:45.445Z,21.00
2019-06-26T01:53:15.132Z,21.00
2019-06-26T01:55:45.546Z,21.00
2019-06-26T01:58:15.303Z,20.90
2019-06-26T02:00:45.014Z,20.90
2019-06-26T02:03:14.767Z,20.80
2019-06-26T02:05:44.398Z,20.90
2019-06-26T02:08:14.079Z,20.80
2019-06-26T02:10:44.091Z,20.80
2019-06-26T02:13:13.865Z,20.80
2019-06-26T02:15:43.571Z,20.80
2019-06-26T02:18:45.409Z,20.80
2019-06-26T02:21:16.085Z,20.70
2019-06-26T02:23:46.795Z,20.70
2019-06-26T02:26:16.450Z,20.70
2019-06-26T02:28:46.180Z,20.70
2019-06-26T02:31:15.879Z,20.70
2019-06-26T02:33:45.543Z,20.80
2019-06-26T02:36:15.197Z,20.80
2019-06-26T02:38:44.999Z,20.80
2019-06-26T02:41:14.952Z,20.80
2019-06-26T02:43:45.354Z,20.80
2019-06-26T02:46:15.122Z,20.80
2019-06-26T02:48:44.778Z,20.80
2019-06-26T02:51:14.445Z,20.90
2019-06-26T02:53:44.151Z,20.90
2019-06-26T02:56:13.797Z,20.90
2019-06-26T02:58:43.480Z,21.00
2019-06-26T03:01:13.189Z,21.00
2019-06-26T03:03:42.930Z,21.10
2019-06-26T03:06:12.633Z,21.10
2019-06-26T03:08:42.287Z,21.10
2019-06-26T03:11:11.938Z,21.10
2019-06-26T03:13:41.607Z,21.10
2019-06-26T03:16:11.320Z,21.10
2019-06-26T03:18:41.110Z,21.10
2019-06-26T03:21:10.752Z,21.10
2019-06-26T03:23:40.504Z,21.20
2019-06-26T03:26:10.249Z,21.20
2019-06-26T03:28:39.991Z,21.20
2019-06-26T03:31:09.643Z,21.20
2019-06-26T03:33:39.324Z,21.30
2019-06-26T03:36:09.946Z,21.30
2019-06-26T03:38:39.672Z,21.30
2019-06-26T03:41:09.338Z,21.40
2019-06-26T03:43:39.507Z,21.40
2019-06-26T03:46:09.244Z,21.50
2019-06-26T03:48:39.179Z,21.50
2019-06-26T03:51:08.906Z,21.50
2019-06-26T03:53:38.611Z,21.60
2019-06-26T03:56:08.316Z,21.60
2019-06-26T03:58:38.124Z,21.60
2019-06-26T04:01:07.795Z,21.60
2019-06-26T04:03:37.494Z,21.70
2019-06-26T04:06:07.229Z,21.70
2019-06-26T04:08:36.963Z,21.80
2019-06-26T04:11:06.627Z,21.80
2019-06-26T04:13:36.289Z,21.90
2019-06-26T04:16:06.023Z,22.00
2019-06-26T04:18:35.715Z,22.10
2019-06-26T04:21:05.374Z,22.10
2019-06-26T04:23:35.014Z,22.10
2019-06-26T04:26:04.945Z,22.20
2019-06-26T04:28:34.750Z,22.20
2019-06-26T04:31:04.987Z,22.30
2019-06-26T04:33:34.763Z,22.40
2019-06-26T04:36:05.036Z,22.40
2019-06-26T04:38:34.969Z,22.50
2019-06-26T04:41:05.018Z,22.50
2019-06-26T04:43:34.750Z,22.60
2019-06-26T04:46:05.287Z,22.60
2019-06-26T04:48:34.948Z,22.70
2019-06-26T04:51:05.119Z,22.70
2019-06-26T04:53:34.772Z,22.80
2019-06-26T04:56:06.207Z,22.90
2019-06-26T04:58:36.927Z,23.00
2019-06-26T05:01:06.637Z,23.10
2019-06-26T05:03:36.330Z,23.20
2019-06-26T05:06:06.078Z,23.30
2019-06-26T05:08:35.714Z,23.40
2019-06-26T05:11:05.582Z,23.50
2019-06-26T05:13:35.346Z,23.60
2019-06-26T05:16:14.914Z,23.70
2019-06-26T05:18:36.514Z,23.80
2019-06-26T05:21:06.394Z,24.00
2019-06-26T05:23:36.073Z,24.10
2019-06-26T05:26:05.740Z,24.20
2019-06-26T05:28:37.504Z,24.30
2019-06-26T05:31:07.138Z,24.50
2019-06-26T05:33:36.847Z,24.60
2019-06-26T05:36:06.789Z,24.70
2019-06-26T05:38:36.426Z,24.90
2019-06-26T05:41:06.172Z,25.00
2019-06-26T05:43:35.799Z,25.10
2019-06-26T05:46:05.651Z,25.30
2019-06-26T05:48:35.546Z,25.40
2019-06-26T05:51:05.364Z,25.40
2019-06-26T05:53:35.089Z,25.60
2019-06-26T05:56:05.342Z,25.70
2019-06-26T05:58:35.007Z,25.80
2019-06-26T06:01:04.964Z,25.80
2019-06-26T06:03:35.612Z,25.90
2019-06-26T06:06:05.409Z,26.00
2019-06-26T06:08:35.181Z,26.10
2019-06-26T06:11:04.938Z,26.20
2019-06-26T06:13:34.778Z,26.30
2019-06-26T06:16:06.610Z,26.30
2019-06-26T06:18:36.581Z,26.40
2019-06-26T06:21:06.277Z,26.50
2019-06-26T06:23:36.070Z,26.60
2019-06-26T06:26:05.829Z,26.70
2019-06-26T06:28:35.532Z,26.80
2019-06-26T06:31:05.227Z,26.90
2019-06-26T06:33:35.063Z,27.00
2019-06-26T06:36:05.329Z,27.10
2019-06-26T06:38:35.029Z,27.20
2019-06-26T06:41:05.045Z,27.30
2019-06-26T06:43:34.771Z,27.30
2019-06-26T06:46:06.093Z,27.50
2019-06-26T06:48:35.853Z,27.60
2019-06-26T06:51:05.993Z,27.70
2019-06-26T06:53:37.806Z,27.90
2019-06-26T06:56:07.443Z,28.00
2019-06-26T06:58:37.071Z,28.10
2019-06-26T07:01:06.698Z,28.20
2019-06-26T07:03:36.351Z,28.30
2019-06-26T07:06:07.087Z,28.50
2019-06-26T07:08:37.796Z,28.50
2019-06-26T07:11:07.495Z,28.70
2019-06-26T07:13:37.103Z,28.70
2019-06-26T07:16:06.991Z,28.80
2019-06-26T07:18:36.650Z,28.70
2019-06-26T07:21:06.354Z,28.60
2019-06-26T07:23:36.086Z,28.60
2019-06-26T07:26:06.863Z,28.60
2019-06-26T07:28:36.501Z,28.70
2019-06-26T07:31:06.265Z,28.80
2019-06-26T07:33:37.221Z,28.90
2019-06-26T07:36:06.847Z,28.90
2019-06-26T07:38:36.562Z,28.80
2019-06-26T07:41:06.297Z,28.90
2019-06-26T07:43:36.017Z,29.00
2019-06-26T07:46:05.690Z,29.10
2019-06-26T07:48:35.457Z,29.30
2019-06-26T07:51:05.200Z,29.50
2019-06-26T07:53:34.859Z,29.60
2019-06-26T07:56:05.114Z,29.70
2019-06-26T07:58:35.765Z,29.80
2019-06-26T08:01:07.634Z,29.80
2019-06-26T08:03:37.265Z,29.90
2019-06-26T08:06:06.937Z,30.00
2019-06-26T08:08:36.655Z,30.10
2019-06-26T08:11:07.298Z,30.20
2019-06-26T08:13:37.389Z,30.30
2019-06-26T08:16:07.020Z,30.20
2019-06-26T08:18:37.345Z,30.30
2019-06-26T08:21:12.436Z,30.20
2019-06-26T08:23:39.534Z,30.00
2019-06-26T08:26:09.171Z,30.00
2019-06-26T08:28:38.864Z,29.90
2019-06-26T08:31:09.837Z,29.90
2019-06-26T08:33:41.607Z,30.00
2019-06-26T08:36:11.644Z,30.10
2019-06-26T08:38:42.453Z,30.20
2019-06-26T08:41:14.285Z,30.30
2019-06-26T08:43:44.067Z,30.40
2019-06-26T08:46:13.759Z,30.50
2019-06-26T08:48:43.517Z,30.60
2019-06-26T08:51:13.485Z,30.70
2019-06-26T08:53:46.284Z,30.70
2019-06-26T08:56:16.926Z,30.80
2019-06-26T08:58:47.744Z,30.90
2019-06-26T09:01:18.512Z,31.00
2019-06-26T09:03:48.225Z,31.20
2019-06-26T09:06:17.977Z,31.30
2019-06-26T09:08:47.877Z,31.30
2019-06-26T09:11:17.482Z,31.50
2019-06-26T09:13:47.108Z,31.70
2019-06-26T09:16:16.737Z,31.90
2019-06-26T09:18:49.397Z,32.00
2019-06-26T09:21:19.185Z,32.00
2019-06-26T09:23:48.804Z,32.10
2019-06-26T09:26:18.443Z,32.10
2019-06-26T09:28:48.099Z,32.20
2019-06-26T09:31:18.129Z,32.20
2019-06-26T09:33:48.082Z,32.30
2019-06-26T09:36:17.726Z,32.30
2019-06-26T09:38:47.491Z,32.20
2019-06-26T09:41:19.305Z,32.20
2019-06-26T09:43:49.167Z,32.40
2019-06-26T09:46:18.840Z,32.50
2019-06-26T09:48:53.026Z,32.50
2019-06-26T09:51:20.068Z,32.50
2019-06-26T09:53:50.321Z,32.50
2019-06-26T09:56:20.207Z,32.40
2019-06-26T09:58:50.080Z,32.40
2019-06-26T10:01:19.794Z,32.40
2019-06-26T10:03:53.673Z,32.40
2019-06-26T10:06:24.315Z,32.40
2019-06-26T10:08:54.794Z,32.30
2019-06-26T10:11:24.912Z,32.20
2019-06-26T10:13:54.679Z,32.30
2019-06-26T10:16:24.320Z,32.30
2019-06-26T10:19:09.073Z,32.40
2019-06-26T10:21:26.537Z,32.40
2019-06-26T10:23:56.234Z,32.30
2019-06-26T10:26:26.027Z,32.10
2019-06-26T10:28:56.112Z,31.90
2019-06-26T10:31:25.834Z,31.90
2019-06-26T10:33:56.490Z,31.90
2019-06-26T10:36:26.206Z,31.80
2019-06-26T10:38:56.014Z,31.80
2019-06-26T10:41:25.787Z,31.90
2019-06-26T10:43:55.648Z,32.00
2019-06-26T10:46:25.338Z,32.10
2019-06-26T10:48:55.045Z,32.20
2019-06-26T10:51:24.801Z,32.20
2019-06-26T10:53:54.492Z,31.90
2019-06-26T10:56:24.191Z,31.80
2019-06-26T10:58:53.930Z,31.80
2019-06-26T11:01:23.645Z,31.70
2019-06-26T11:03:53.319Z,31.70
2019-06-26T11:06:23.091Z,31.60
2019-06-26T11:08:52.906Z,31.70
2019-06-26T11:11:22.706Z,31.70
2019-06-26T11:13:52.462Z,31.70
2019-06-26T11:16:22.242Z,31.80
2019-06-26T11:18:52.060Z,31.90
2019-06-26T11:21:21.793Z,31.80
2019-06-26T11:23:52.603Z,31.70
2019-06-26T11:26:23.356Z,31.70
2019-06-26T11:28:53.163Z,31.70
2019-06-26T11:31:23.012Z,31.60
2019-06-26T11:33:52.783Z,31.60
2019-06-26T11:36:22.435Z,31.50
2019-06-26T11:38:52.142Z,31.50
2019-06-26T11:41:21.903Z,31.50
2019-06-26T11:43:51.615Z,31.70
2019-06-26T11:46:21.259Z,31.70
2019-06-26T11:48:50.897Z,31.70
2019-06-26T11:51:20.729Z,31.70
2019-06-26T11:53:50.507Z,31.70
2019-06-26T11:56:20.374Z,31.70
2019-06-26T11:58:50.132Z,31.70
2019-06-26T12:01:19.771Z,31.70
2019-06-26T12:03:49.407Z,31.60
2019-06-26T12:06:19.466Z,31.70
2019-06-26T12:08:49.268Z,31.70
2019-06-26T12:11:18.946Z,31.70
2019-06-26T12:13:48.745Z,31.70
2019-06-26T12:16:18.682Z,31.60
2019-06-26T12:18:48.392Z,31.50
2019-06-26T12:21:19.125Z,31.60
2019-06-26T12:23:49.850Z,31.60
2019-06-26T12:26:19.528Z,31.70
2019-06-26T12:28:50.262Z,31.70
2019-06-26T12:31:19.875Z,31.70
2019-06-26T12:33:50.638Z,31.80
2019-06-26T12:36:20.353Z,31.70
2019-06-26T12:38:50.032Z,31.70
2019-06-26T12:41:19.806Z,31.70
2019-06-26T12:43:49.531Z,31.70
2019-06-26T12:46:20.154Z,31.60
2019-06-26T12:48:49.962Z,31.70
2019-06-26T12:51:19.657Z,31.70
2019-06-26T12:53:49.305Z,31.80
2019-06-26T12:56:18.926Z,31.90
2019-06-26T12:58:48.664Z,32.00
2019-06-26T13:01:19.460Z,32.00
2019-06-26T13:03:49.176Z,31.90
2019-06-26T13:06:18.882Z,31.90
2019-06-26T13:08:49.648Z,31.90
2019-06-26T13:11:19.264Z,32.00
2019-06-26T13:14:02.123Z,31.90
2019-06-26T13:16:20.315Z,31.70
2019-06-26T13:18:50.062Z,31.70
2019-06-26T13:21:19.722Z,31.70
2019-06-26T13:23:49.557Z,31.60
2019-06-26T13:26:20.297Z,31.70
2019-06-26T13:28:50.353Z,31.60
2019-06-26T13:31:20.082Z,31.40
2019-06-26T13:33:49.711Z,31.30
2019-06-26T13:36:19.376Z,31.10
2019-06-26T13:38:49.104Z,31.00
2019-06-26T13:41:18.825Z,31.10
2019-06-26T13:43:49.574Z,31.20
2019-06-26T13:46:19.300Z,31.10
2019-06-26T13:48:48.922Z,31.00
2019-06-26T13:51:21.513Z,31.00
2019-06-26T13:53:49.971Z,30.90
2019-06-26T13:56:19.717Z,30.70
2019-06-26T13:58:50.485Z,30.50
2019-06-26T14:01:23.056Z,30.40
2019-06-26T14:03:51.599Z,30.50
2019-06-26T14:06:21.301Z,30.40
2019-06-26T14:08:51.903Z,30.20
2019-06-26T14:11:22.547Z,29.90
2019-06-26T14:13:53.606Z,30.00
2019-06-26T14:16:24.385Z,30.10
2019-06-26T14:18:55.230Z,30.00
2019-06-26T14:21:26.262Z,30.10
2019-06-26T14:23:56.160Z,30.10
2019-06-26T14:26:25.870Z,30.10
2019-06-26T14:28:55.963Z,30.10
2019-06-26T14:31:26.684Z,30.00
2019-06-26T14:33:56.456Z,29.80
2019-06-26T14:36:27.659Z,29.80
2019-06-26T14:38:57.319Z,29.80
2019-06-26T14:41:26.964Z,29.80
2019-06-26T14:43:56.595Z,29.80
2019-06-26T14:46:26.225Z,29.70
2019-06-26T14:48:55.928Z,29.50
2019-06-26T14:51:41.125Z,29.30
2019-06-26T14:53:57.970Z,29.30
2019-06-26T14:56:36.850Z,29.20
2019-06-26T14:59:06.515Z,29.20
2019-06-26T15:01:37.276Z,29.10
2019-06-26T15:04:07.154Z,29.00
2019-06-26T15:06:36.929Z,28.90
2019-06-26T15:09:07.219Z,28.80
2019-06-26T15:11:38.111Z,28.70
2019-06-26T15:14:07.982Z,28.60
2019-06-26T15:16:38.210Z,28.60
2019-06-26T15:19:08.022Z,28.70
2019-06-26T15:21:37.964Z,28.60
2019-06-26T15:24:07.686Z,28.50
2019-06-26T15:26:37.342Z,28.40
2019-06-26T15:29:08.054Z,28.20
2019-06-26T15:31:38.188Z,28.00
2019-06-26T15:34:07.819Z,27.70
2019-06-26T15:36:37.454Z,27.50
2019-06-26T15:39:07.900Z,27.50
2019-06-26T15:41:37.558Z,27.40
2019-06-26T15:44:07.440Z,27.40
2019-06-26T15:46:37.066Z,27.40
2019-06-26T15:49:07.009Z,27.50
2019-06-26T15:51:36.754Z,27.40
2019-06-26T15:54:06.500Z,27.50
2019-06-26T15:56:37.131Z,27.50
2019-06-26T15:59:06.806Z,27.40
2019-06-26T16:01:36.460Z,27.20
2019-06-26T16:04:07.254Z,27.10
2019-06-26T16:06:36.966Z,27.10
2019-06-26T16:09:06.969Z,27.10
2019-06-26T16:11:37.641Z,27.00
2019-06-26T16:14:07.297Z,26.90
2019-06-26T16:16:38.782Z,26.80
2019-06-26T16:19:12.310Z,26.80
2019-06-26T16:21:41.939Z,26.70
2019-06-26T16:24:12.684Z,26.60
2019-06-26T16:26:42.333Z,26.50
2019-06-26T16:29:12.115Z,26.40
2019-06-26T16:31:41.868Z,26.30
2019-06-26T16:34:12.543Z,26.20
2019-06-26T16:36:43.241Z,26.00
2019-06-26T16:39:12.924Z,25.90
2019-06-26T16:41:43.567Z,25.70
2019-06-26T16:44:14.347Z,25.60
2019-06-26T16:46:44.254Z,25.40
2019-06-26T16:49:14.147Z,25.30
2019-06-26T16:51:43.889Z,25.10
2019-06-26T16:54:14.082Z,24.90
2019-06-26T16:56:43.803Z,24.70
2019-06-26T16:59:14.634Z,24.50
2019-06-26T17:01:44.440Z,24.40
2019-06-26T17:04:14.289Z,24.30
2019-06-26T17:06:43.980Z,24.10
2019-06-26T17:09:13.680Z,24.00
2019-06-26T17:11:43.386Z,23.80
2019-06-26T17:14:13.140Z,23.70
2019-06-26T17:16:43.983Z,23.60
2019-06-26T17:19:14.135Z,23.40
2019-06-26T17:21:44.323Z,23.30
2019-06-26T17:24:14.212Z,23.20
2019-06-26T17:26:44.100Z,23.10
2019-06-26T17:29:13.881Z,23.00
2019-06-26T17:31:43.579Z,22.90
2019-06-26T17:34:13.340Z,22.80
2019-06-26T17:36:43.146Z,22.70
2019-06-26T17:39:12.941Z,22.70
2019-06-26T17:41:44.127Z,22.60
2019-06-26T17:44:14.162Z,22.60
2019-06-26T17:46:44.009Z,22.50
2019-06-26T17:49:13.756Z,22.40
2019-06-26T17:51:43.567Z,22.30
2019-06-26T17:54:13.411Z,22.20
2019-06-26T17:56:43.203Z,22.20
2019-06-26T17:59:13.132Z,22.10
2019-06-26T18:01:42.829Z,22.00
2019-06-26T18:04:12.517Z,21.90
2019-06-26T18:06:42.231Z,21.80
2019-06-26T18:09:15.020Z,21.70
2019-06-26T18:11:44.740Z,21.60
2019-06-26T18:14:14.568Z,21.40
2019-06-26T18:16:44.283Z,21.30
2019-06-26T18:19:14.088Z,21.20
2019-06-26T18:21:44.146Z,21.10
2019-06-26T18:24:13.895Z,21.10
2019-06-26T18:26:43.650Z,21.00
2019-06-26T18:29:13.409Z,20.90
2019-06-26T18:31:43.116Z,20.80
2019-06-26T18:34:12.832Z,20.80
2019-06-26T18:36:42.526Z,20.80
2019-06-26T18:39:12.327Z,20.60
2019-06-26T18:41:42.295Z,20.60
2019-06-26T18:44:12.279Z,20.50
2019-06-26T18:46:42.346Z,20.50
2019-06-26T18:49:12.058Z,20.50
2019-06-26T18:51:41.986Z,20.40
2019-06-26T18:54:11.839Z,20.30
2019-06-26T18:56:41.629Z,20.20
2019-06-26T18:59:11.343Z,20.20
2019-06-26T19:01:41.118Z,20.10
2019-06-26T19:04:11.854Z,20.10
2019-06-26T19:06:41.523Z,20.10
2019-06-26T19:09:11.330Z,20.00
2019-06-26T19:11:41.063Z,20.00
2019-06-26T19:14:10.935Z,19.90
2019-06-26T19:16:40.581Z,19.90
2019-06-26T19:19:12.306Z,19.80
2019-06-26T19:21:41.880Z,19.80
2019-06-26T19:24:11.638Z,19.70
2019-06-26T19:26:41.479Z,19.70
2019-06-26T19:29:11.247Z,19.60
2019-06-26T19:31:41.839Z,19.60
2019-06-26T19:34:11.559Z,19.60
2019-06-26T19:36:49.953Z,19.60
2019-06-26T19:39:13.248Z,19.60
2019-06-26T19:41:42.988Z,19.50
2019-06-26T19:44:12.797Z,19.50
2019-06-26T19:46:42.555Z,19.40
2019-06-26T19:49:12.468Z,19.40
2019-06-26T19:51:42.120Z,19.30
2019-06-26T19:54:26.139Z,19.30
2019-06-26T19:56:43.432Z,19.30
2019-06-26T19:59:13.233Z,19.20
2019-06-26T20:01:42.904Z,19.20
2019-06-26T20:04:12.836Z,19.10
2019-06-26T20:06:42.516Z,19.00
2019-06-26T20:09:12.663Z,19.00
2019-06-26T20:11:42.438Z,19.00
2019-06-26T20:14:12.281Z,18.90
2019-06-26T20:16:42.292Z,18.80
2019-06-26T20:19:11.980Z,18.80
2019-06-26T20:21:41.624Z,18.70
2019-06-26T20:24:11.369Z,18.60
2019-06-26T20:26:41.095Z,18.60
2019-06-26T20:29:10.855Z,18.50
2019-06-26T20:31:40.639Z,18.40
2019-06-26T20:34:10.327Z,18.40
2019-06-26T20:36:40.031Z,18.30
2019-06-26T20:39:12.975Z,18.30
2019-06-26T20:41:42.628Z,18.20
2019-06-26T20:44:12.302Z,18.20
2019-06-26T20:46:42.004Z,18.10
2019-06-26T20:49:11.762Z,18.00
2019-06-26T20:51:41.520Z,17.90
2019-06-26T20:54:11.178Z,17.90
2019-06-26T20:56:40.894Z,17.90
2019-06-26T20:59:10.627Z,17.80
2019-06-26T21:01:40.434Z,17.80
2019-06-26T21:04:10.171Z,17.80
2019-06-26T21:06:39.804Z,17.80
2019-06-26T21:09:09.624Z,17.70
2019-06-26T21:11:39.272Z,17.70
2019-06-26T21:14:08.944Z,17.60
2019-06-26T21:16:38.729Z,17.50
2019-06-26T21:19:08.403Z,17.50
2019-06-26T21:21:38.175Z,17.40
2019-06-26T21:24:10.892Z,17.40
2019-06-26T21:26:40.697Z,17.30
2019-06-26T21:29:10.553Z,17.30
2019-06-26T21:31:40.319Z,17.20
2019-06-26T21:34:10.138Z,17.20
2019-06-26T21:36:39.915Z,17.20
2019-06-26T21:39:09.742Z,17.20
2019-06-26T21:41:39.571Z,17.20
2019-06-26T21:44:09.379Z,17.20
2019-06-26T21:46:39.258Z,17.10
2019-06-26T21:49:10.380Z,17.10
2019-06-26T21:51:40.253Z,17.10
2019-06-26T21:54:11.110Z,17.10
2019-06-26T21:56:58.739Z,17.10
2019-06-26T21:59:46.203Z,17.00
2019-06-26T22:02:33.982Z,17.00
2019-06-26T22:05:08.922Z,16.90
2019-06-26T22:07:46.353Z,16.90
2019-06-26T22:10:17.854Z,16.80
2019-06-26T22:12:47.895Z,16.80
2019-06-26T22:15:18.640Z,16.80
2019-06-26T22:17:48.344Z,16.70
2019-06-26T22:20:18.906Z,16.70
2019-06-26T22:22:48.557Z,16.60
2019-06-26T22:25:18.386Z,16.60
2019-06-26T22:27:48.274Z,16.50
2019-06-26T22:30:17.900Z,16.40
2019-06-26T22:32:47.644Z,16.40
2019-06-26T22:35:18.046Z,16.40
2019-06-26T22:37:47.803Z,16.40
2019-06-26T22:40:18.076Z,16.30
2019-06-26T22:42:47.786Z,16.30
2019-06-26T22:45:17.663Z,16.30
2019-06-26T22:47:47.443Z,16.30
2019-06-26T22:50:18.033Z,16.20
2019-06-26T22:52:47.798Z,16.20
2019-06-26T22:55:17.634Z,16.20
2019-06-26T22:57:47.603Z,16.20
2019-06-26T23:00:18.798Z,16.10
2019-06-26T23:02:48.563Z,16.10
2019-06-26T23:05:18.264Z,16.10
2019-06-26T23:07:47.944Z,16.10
2019-06-26T23:10:18.825Z,16.10
2019-06-26T23:12:48.559Z,16.10
2019-06-26T23:15:18.838Z,16.10
2019-06-26T23:17:48.570Z,16.10
2019-06-26T23:20:18.484Z,16.10
2019-06-26T23:22:48.147Z,16.00
2019-06-26T23:25:17.942Z,16.00
2019-06-26T23:27:48.630Z,16.00
2019-06-26T23:30:18.940Z,16.00
2019-06-26T23:32:48.802Z,15.90
2019-06-26T23:35:19.116Z,15.90
2019-06-26T23:37:48.853Z,15.90
2019-06-26T23:40:18.867Z,15.90
2019-06-26T23:42:48.518Z,15.90
2019-06-26T23:45:18.632Z,15.80
2019-06-26T23:47:49.234Z,15.80
2019-06-26T23:50:19.167Z,15.80
2019-06-26T23:52:48.815Z,15.80
2019-06-26T23:55:18.450Z,15.80
2019-06-26T23:57:58.453Z,15.80
